createdAt,value
2018-06-23T00:02:23.369Z,13.50
2018-06-23T00:04:51.821Z,13.50
2018-06-23T00:07:20.319Z,13.50
2018-06-23T00:09:48.759Z,13.50
2018-06-23T00:12:17.225Z,13.60
2018-06-23T00:14:45.674Z,13.50
2018-06-23T00:17:14.305Z,13.70
2018-06-23T00:19:42.868Z,13.70
2018-06-23T00:22:11.322Z,13.70
2018-06-23T00:24:39.821Z,13.50
2018-06-23T00:27:08.303Z,13.40
2018-06-23T00:29:36.789Z,13.40
2018-06-23T00:32:05.272Z,13.30
2018-06-23T00:34:33.725Z,13.30
2018-06-23T00:37:02.181Z,13.30
2018-06-23T00:39:30.660Z,13.40
2018-06-23T00:41:59.121Z,13.40
2018-06-23T00:44:27.570Z,13.30
2018-06-23T00:49:24.182Z,13.20
2018-06-23T00:51:52.665Z,13.30
2018-06-23T00:54:21.140Z,13.20
2018-06-23T00:56:49.613Z,13.30
2018-06-23T00:59:29.309Z,13.20
2018-06-23T01:01:57.788Z,13.20
2018-06-23T01:04:26.280Z,13.20
2018-06-23T01:06:54.785Z,13.10
2018-06-23T01:09:23.270Z,13.10
2018-06-23T01:11:51.740Z,13.10
2018-06-23T01:14:20.197Z,13.10
2018-06-23T01:16:48.665Z,13.00
2018-06-23T01:19:17.121Z,13.00
2018-06-23T01:21:45.625Z,13.10
2018-06-23T01:24:14.960Z,13.10
2018-06-23T01:26:43.414Z,13.10
2018-06-23T01:29:11.883Z,13.20
2018-06-23T01:31:40.341Z,13.20
2018-06-23T01:34:08.869Z,13.20
2018-06-23T01:36:37.357Z,13.10
2018-06-23T01:41:35.514Z,13.10
2018-06-23T01:44:04.102Z,13.20
2018-06-23T01:46:32.569Z,13.20
2018-06-23T01:49:01.269Z,13.20
2018-06-23T01:51:29.721Z,13.20
2018-06-23T01:53:58.241Z,13.30
2018-06-23T01:56:26.816Z,13.40
2018-06-23T01:58:55.510Z,13.40
2018-06-23T02:01:23.960Z,13.40
2018-06-23T02:03:52.432Z,13.50
2018-06-23T02:06:20.898Z,13.50
2018-06-23T02:08:49.340Z,13.50
2018-06-23T02:13:45.960Z,13.60
2018-06-23T02:16:19.812Z,13.60
2018-06-23T02:18:53.613Z,13.60
2018-06-23T02:24:01.057Z,13.60
2018-06-23T02:26:34.806Z,13.60
2018-06-23T02:29:08.609Z,13.50
2018-06-23T02:31:42.381Z,13.60
2018-06-23T02:35:20.214Z,13.60
2018-06-23T02:37:48.718Z,13.60
2018-06-23T02:40:17.190Z,13.50
2018-06-23T02:42:45.645Z,13.50
2018-06-23T02:45:14.180Z,13.40
2018-06-23T02:47:42.670Z,13.30
2018-06-23T02:50:11.137Z,13.40
2018-06-23T02:52:39.593Z,13.40
2018-06-23T02:55:08.085Z,13.40
2018-06-23T02:57:36.538Z,13.40
2018-06-23T03:00:06.193Z,13.40
2018-06-23T03:02:34.665Z,13.50
2018-06-23T03:05:03.184Z,13.50
2018-06-23T03:07:31.654Z,13.50
2018-06-23T03:10:00.125Z,13.50
2018-06-23T03:12:28.609Z,13.50
2018-06-23T03:14:57.053Z,13.50
2018-06-23T03:17:25.512Z,13.60
2018-06-23T03:19:53.963Z,13.60
2018-06-23T03:22:22.425Z,13.60
2018-06-23T03:24:50.864Z,13.60
2018-06-23T03:27:19.322Z,13.50
2018-06-23T03:29:47.794Z,13.50
2018-06-23T03:32:16.253Z,13.60
2018-06-23T03:34:44.709Z,13.60
2018-06-23T03:37:13.185Z,13.50
2018-06-23T03:39:41.655Z,13.50
2018-06-23T03:42:10.146Z,13.50
2018-06-23T03:44:38.608Z,13.50
2018-06-23T03:47:07.065Z,13.50
2018-06-23T03:49:35.523Z,13.50
2018-06-23T03:52:04.013Z,13.40
2018-06-23T03:54:32.789Z,13.50
2018-06-23T03:57:01.246Z,13.60
2018-06-23T03:59:29.676Z,13.60
2018-06-23T04:01:58.121Z,13.70
2018-06-23T04:04:26.618Z,13.70
2018-06-23T04:06:55.050Z,13.60
2018-06-23T04:09:23.492Z,13.60
2018-06-23T04:11:51.997Z,13.60
2018-06-23T04:14:20.435Z,13.60
2018-06-23T04:16:48.978Z,13.70
2018-06-23T04:19:17.399Z,13.70
2018-06-23T04:21:45.901Z,13.80
2018-06-23T04:24:14.401Z,13.80
2018-06-23T04:26:42.846Z,13.70
2018-06-23T04:29:11.309Z,13.60
2018-06-23T04:31:39.805Z,13.60
2018-06-23T04:34:08.269Z,13.60
2018-06-23T04:36:36.709Z,13.60
2018-06-23T04:39:07.147Z,13.70
2018-06-23T04:41:36.357Z,13.80
2018-06-23T04:44:04.846Z,13.70
2018-06-23T04:46:33.286Z,13.80
2018-06-23T04:49:01.757Z,13.80
2018-06-23T04:51:30.232Z,13.80
2018-06-23T04:53:58.681Z,13.90
2018-06-23T04:56:27.151Z,13.90
2018-06-23T04:58:55.634Z,14.00
2018-06-23T05:01:24.101Z,14.00
2018-06-23T05:03:52.753Z,14.10
2018-06-23T05:06:21.236Z,14.00
2018-06-23T05:08:49.699Z,14.10
2018-06-23T05:11:18.221Z,14.10
2018-06-23T05:13:46.663Z,14.10
2018-06-23T05:16:15.124Z,14.20
2018-06-23T05:18:43.585Z,14.30
2018-06-23T05:21:12.154Z,14.20
2018-06-23T05:23:40.631Z,14.30
2018-06-23T05:26:09.082Z,14.30
2018-06-23T05:28:37.597Z,14.40
2018-06-23T05:31:06.267Z,14.50
2018-06-23T05:33:34.769Z,14.60
2018-06-23T05:36:03.281Z,14.70
2018-06-23T05:38:31.742Z,14.70
2018-06-23T05:41:00.213Z,14.80
2018-06-23T05:43:28.667Z,14.80
2018-06-23T05:45:57.138Z,14.80
2018-06-23T05:48:25.581Z,14.90
2018-06-23T05:50:54.033Z,15.00
2018-06-23T05:53:22.481Z,15.10
2018-06-23T05:55:50.977Z,15.20
2018-06-23T05:58:19.465Z,15.20
2018-06-23T06:00:48.006Z,15.30
2018-06-23T06:03:16.406Z,15.20
2018-06-23T06:05:44.901Z,15.20
2018-06-23T06:08:13.353Z,15.10
2018-06-23T06:10:41.843Z,15.00
2018-06-23T06:13:10.285Z,14.80
2018-06-23T06:15:38.730Z,14.90
2018-06-23T06:18:07.205Z,14.90
2018-06-23T06:20:35.645Z,14.90
2018-06-23T06:23:04.112Z,14.90
2018-06-23T06:25:32.577Z,14.90
2018-06-23T06:28:01.029Z,14.90
2018-06-23T06:30:29.483Z,14.90
2018-06-23T06:32:57.960Z,15.00
2018-06-23T06:35:26.410Z,15.00
2018-06-23T06:37:54.936Z,15.10
2018-06-23T06:40:23.412Z,15.10
2018-06-23T06:42:58.336Z,15.10
2018-06-23T06:45:26.793Z,15.20
2018-06-23T06:47:55.246Z,15.30
2018-06-23T06:50:23.793Z,15.30
2018-06-23T06:52:52.274Z,15.30
2018-06-23T06:55:20.766Z,15.40
2018-06-23T06:57:49.254Z,15.40
2018-06-23T07:00:17.751Z,15.40
2018-06-23T07:02:46.286Z,15.60
2018-06-23T07:05:14.741Z,15.80
2018-06-23T07:07:43.195Z,15.80
2018-06-23T07:10:11.695Z,16.00
2018-06-23T07:12:40.152Z,16.10
2018-06-23T07:15:13.733Z,16.10
2018-06-23T07:17:42.260Z,16.20
2018-06-23T07:20:10.829Z,16.20
2018-06-23T07:22:39.953Z,16.20
2018-06-23T07:25:08.388Z,16.10
2018-06-23T07:27:36.838Z,16.10
2018-06-23T07:30:05.757Z,16.20
2018-06-23T07:32:34.285Z,16.40
2018-06-23T07:35:02.822Z,16.40
2018-06-23T07:37:31.209Z,16.40
2018-06-23T07:39:59.673Z,16.50
2018-06-23T07:42:28.194Z,16.60
2018-06-23T07:44:56.653Z,16.50
2018-06-23T07:47:25.129Z,16.40
2018-06-23T07:49:53.576Z,16.30
2018-06-23T07:52:22.041Z,16.30
2018-06-23T07:54:50.473Z,16.30
2018-06-23T07:57:18.945Z,16.30
2018-06-23T07:59:47.402Z,16.30
2018-06-23T08:02:15.897Z,16.30
2018-06-23T08:04:44.385Z,16.20
2018-06-23T08:07:12.843Z,16.30
2018-06-23T08:09:41.284Z,16.30
2018-06-23T08:12:09.761Z,16.30
2018-06-23T08:14:38.228Z,16.40
2018-06-23T08:17:06.701Z,16.50
2018-06-23T08:19:35.146Z,16.60
2018-06-23T08:22:03.673Z,16.70
2018-06-23T08:24:32.137Z,16.70
2018-06-23T08:27:00.614Z,16.70
2018-06-23T08:29:29.092Z,16.80
2018-06-23T08:31:57.558Z,16.90
2018-06-23T08:34:26.038Z,16.90
2018-06-23T08:36:54.532Z,16.80
2018-06-23T08:39:22.989Z,16.80
2018-06-23T08:41:51.477Z,16.70
2018-06-23T08:44:19.959Z,16.50
2018-06-23T08:46:48.424Z,16.50
2018-06-23T08:49:16.941Z,16.40
2018-06-23T08:51:45.357Z,16.50
2018-06-23T08:54:13.821Z,16.50
2018-06-23T08:56:42.285Z,16.50
2018-06-23T08:59:10.761Z,16.50
2018-06-23T09:01:39.238Z,16.60
2018-06-23T09:04:08.373Z,16.60
2018-06-23T09:06:36.964Z,16.60
2018-06-23T09:09:07.811Z,16.60
2018-06-23T09:11:36.270Z,16.60
2018-06-23T09:14:04.804Z,16.60
2018-06-23T09:16:33.253Z,16.60
2018-06-23T09:19:01.733Z,16.60
2018-06-23T09:21:30.209Z,16.70
2018-06-23T09:23:58.758Z,16.70
2018-06-23T09:26:27.213Z,16.90
2018-06-23T09:28:55.701Z,16.90
2018-06-23T09:31:24.157Z,17.00
2018-06-23T09:33:52.641Z,17.10
2018-06-23T09:36:21.401Z,17.20
2018-06-23T09:38:49.854Z,17.20
2018-06-23T09:41:18.367Z,17.20
2018-06-23T09:43:46.810Z,17.40
2018-06-23T09:46:15.333Z,17.30
2018-06-23T09:48:44.021Z,17.30
2018-06-23T09:51:12.469Z,17.50
2018-06-23T09:53:40.925Z,17.50
2018-06-23T09:56:09.597Z,17.60
2018-06-23T09:58:38.043Z,17.40
2018-06-23T10:01:06.525Z,17.40
2018-06-23T10:03:34.978Z,17.40
2018-06-23T10:06:03.435Z,17.20
2018-06-23T10:08:31.918Z,17.10
2018-06-23T10:11:00.380Z,17.00
2018-06-23T10:13:28.857Z,17.00
2018-06-23T10:15:57.294Z,17.00
2018-06-23T10:18:25.771Z,17.10
2018-06-23T10:20:54.268Z,17.30
2018-06-23T10:23:23.047Z,17.50
2018-06-23T10:25:51.528Z,17.90
2018-06-23T10:28:19.970Z,18.10
2018-06-23T10:30:48.468Z,18.20
2018-06-23T10:33:16.926Z,18.40
2018-06-23T10:35:45.377Z,18.60
2018-06-23T10:38:13.836Z,18.60
2018-06-23T10:40:42.334Z,18.60
2018-06-23T10:43:10.850Z,18.60
2018-06-23T10:45:39.492Z,18.50
2018-06-23T10:48:07.961Z,18.50
2018-06-23T10:50:36.425Z,18.40
2018-06-23T10:53:05.057Z,18.30
2018-06-23T10:58:01.753Z,18.10
2018-06-23T11:00:30.326Z,18.00
2018-06-23T11:02:58.777Z,18.00
2018-06-23T11:05:27.265Z,17.90
2018-06-23T11:07:55.713Z,17.90
2018-06-23T11:10:24.243Z,18.10
2018-06-23T11:12:52.697Z,18.40
2018-06-23T11:15:21.165Z,18.60
2018-06-23T11:17:49.617Z,18.90
2018-06-23T11:20:18.143Z,19.30
2018-06-23T11:25:14.789Z,20.10
2018-06-23T11:27:43.264Z,20.50
2018-06-23T11:30:11.741Z,20.60
2018-06-23T11:32:40.321Z,20.90
2018-06-23T11:35:08.780Z,21.00
2018-06-23T11:37:37.253Z,20.70
2018-06-23T11:40:05.956Z,20.40
2018-06-23T11:42:34.401Z,20.10
2018-06-23T11:45:02.917Z,19.80
2018-06-23T11:47:31.373Z,19.40
2018-06-23T11:50:00.113Z,19.30
2018-06-23T11:52:28.797Z,19.10
2018-06-23T11:54:57.079Z,19.00
2018-06-23T11:57:25.573Z,18.90
2018-06-23T11:59:54.369Z,19.10
2018-06-23T12:02:22.873Z,19.40
2018-06-23T12:04:51.332Z,19.70
2018-06-23T12:07:19.781Z,19.80
2018-06-23T12:12:16.416Z,19.80
2018-06-23T12:18:16.653Z,19.60
2018-06-23T12:20:45.125Z,19.30
2018-06-23T12:23:13.622Z,19.20
2018-06-23T12:25:42.125Z,19.10
2018-06-23T12:28:10.573Z,19.00
2018-06-23T12:30:39.022Z,19.00
2018-06-23T12:33:07.566Z,19.00
2018-06-23T12:35:36.010Z,19.00
2018-06-23T12:38:04.511Z,19.10
2018-06-23T12:40:32.993Z,19.10
2018-06-23T12:43:01.457Z,19.10
2018-06-23T12:45:29.918Z,19.10
2018-06-23T12:47:58.414Z,19.20
2018-06-23T12:50:26.873Z,19.50
2018-06-23T12:52:55.360Z,20.10
2018-06-23T12:55:23.833Z,20.40
2018-06-23T12:57:52.293Z,20.80
2018-06-23T13:00:20.781Z,21.30
2018-06-23T13:02:49.238Z,21.50
2018-06-23T13:05:17.721Z,21.60
2018-06-23T13:07:46.172Z,22.00
2018-06-23T13:10:14.638Z,22.40
2018-06-23T13:12:43.378Z,22.70
2018-06-23T13:15:11.895Z,23.10
2018-06-23T13:17:40.541Z,23.10
2018-06-23T13:20:09.058Z,23.50
2018-06-23T13:22:37.697Z,23.40
2018-06-23T13:25:06.233Z,22.90
2018-06-23T13:27:34.676Z,22.80
2018-06-23T13:30:03.190Z,22.70
2018-06-23T13:32:31.756Z,22.20
2018-06-23T13:35:00.109Z,21.90
2018-06-23T13:37:28.601Z,21.80
2018-06-23T13:39:57.071Z,21.80
2018-06-23T13:42:25.605Z,21.80
2018-06-23T13:44:54.002Z,21.70
2018-06-23T13:47:22.445Z,21.60
2018-06-23T13:49:50.925Z,21.80
2018-06-23T13:52:19.393Z,22.20
2018-06-23T13:54:47.872Z,22.60
2018-06-23T13:57:16.341Z,23.10
2018-06-23T13:59:44.831Z,23.40
2018-06-23T14:02:13.290Z,23.50
2018-06-23T14:04:41.757Z,23.40
2018-06-23T14:07:10.931Z,23.40
2018-06-23T14:09:39.414Z,23.10
2018-06-23T14:12:07.864Z,22.90
2018-06-23T14:14:36.403Z,22.40
2018-06-23T14:17:05.090Z,22.10
2018-06-23T14:19:33.597Z,21.90
2018-06-23T14:22:02.253Z,21.70
2018-06-23T14:24:30.769Z,21.70
2018-06-23T14:26:59.269Z,21.40
2018-06-23T14:29:27.717Z,21.50
2018-06-23T14:31:56.570Z,21.40
2018-06-23T14:34:24.905Z,21.40
2018-06-23T14:39:25.548Z,21.90
2018-06-23T14:41:54.064Z,22.60
2018-06-23T14:44:22.546Z,23.20
2018-06-23T14:46:51.127Z,23.70
2018-06-23T14:49:19.587Z,23.80
2018-06-23T14:51:48.045Z,23.60
2018-06-23T14:54:16.529Z,23.30
2018-06-23T14:56:45.028Z,23.40
2018-06-23T14:59:13.697Z,23.70
2018-06-23T15:01:42.150Z,24.30
2018-06-23T15:04:10.614Z,24.80
2018-06-23T15:06:39.122Z,25.10
2018-06-23T15:09:18.981Z,25.40
2018-06-23T15:12:59.532Z,25.70
2018-06-23T15:15:27.986Z,26.00
2018-06-23T15:17:56.742Z,26.20
2018-06-23T15:20:25.220Z,26.20
2018-06-23T15:22:53.673Z,26.20
2018-06-23T15:25:22.145Z,26.20
2018-06-23T15:27:50.609Z,26.00
2018-06-23T15:30:19.129Z,25.70
2018-06-23T15:32:47.573Z,25.40
2018-06-23T15:35:16.053Z,25.20
2018-06-23T15:37:45.542Z,25.30
2018-06-23T15:40:15.302Z,25.20
2018-06-23T15:42:43.794Z,25.40
2018-06-23T15:45:12.284Z,25.70
2018-06-23T15:47:40.833Z,25.90
2018-06-23T15:50:09.293Z,26.20
2018-06-23T15:52:37.794Z,26.30
2018-06-23T15:55:06.405Z,26.40
2018-06-23T15:57:34.841Z,26.30
2018-06-23T16:00:03.373Z,26.10
2018-06-23T16:02:31.840Z,26.10
2018-06-23T16:05:00.373Z,25.80
2018-06-23T16:07:28.853Z,25.20
2018-06-23T16:09:57.351Z,24.80
2018-06-23T16:12:25.851Z,24.50
2018-06-23T16:14:54.363Z,24.30
2018-06-23T16:17:22.800Z,24.10
2018-06-23T16:19:51.278Z,23.90
2018-06-23T16:22:19.741Z,23.80
2018-06-23T16:24:48.359Z,23.90
2018-06-23T16:27:16.844Z,23.90
2018-06-23T16:29:47.444Z,23.60
2018-06-23T16:32:15.901Z,23.40
2018-06-23T16:34:44.522Z,23.20
2018-06-23T16:37:12.910Z,22.90
2018-06-23T16:39:41.406Z,22.70
2018-06-23T16:42:09.885Z,22.60
2018-06-23T16:44:38.349Z,22.40
2018-06-23T16:47:07.274Z,22.20
2018-06-23T16:49:35.977Z,22.00
2018-06-23T16:54:32.558Z,21.80
2018-06-23T16:57:01.025Z,21.70
2018-06-23T16:59:29.496Z,21.60
2018-06-23T17:01:57.949Z,21.50
2018-06-23T17:04:28.004Z,21.40
2018-06-23T17:09:24.785Z,21.30
2018-06-23T17:11:53.362Z,21.20
2018-06-23T17:14:21.921Z,21.20
2018-06-23T17:16:50.469Z,21.10
2018-06-23T17:19:18.914Z,21.10
2018-06-23T17:21:47.859Z,21.00
2018-06-23T17:26:44.556Z,20.80
2018-06-23T17:29:13.022Z,20.60
2018-06-23T17:31:41.493Z,20.50
2018-06-23T17:34:09.953Z,20.40
2018-06-23T17:36:38.526Z,20.40
2018-06-23T17:39:08.770Z,20.40
2018-06-23T17:41:37.314Z,20.30
2018-06-23T17:44:06.008Z,20.30
2018-06-23T17:46:34.463Z,20.20
2018-06-23T17:49:03.065Z,20.90
2018-06-23T17:51:31.853Z,22.70
2018-06-23T17:54:00.673Z,24.00
2018-06-23T17:56:29.213Z,24.90
2018-06-23T17:58:57.701Z,25.00
2018-06-23T18:01:26.237Z,26.60
2018-06-23T18:03:54.801Z,29.40
2018-06-23T18:06:23.279Z,31.10
2018-06-23T18:08:51.945Z,31.80
2018-06-23T18:11:20.445Z,31.40
2018-06-23T18:13:48.933Z,31.20
2018-06-23T18:16:18.384Z,30.50
2018-06-23T18:18:47.662Z,30.80
2018-06-23T18:21:16.112Z,31.60
2018-06-23T18:23:44.909Z,31.90
2018-06-23T18:26:13.432Z,33.00
2018-06-23T18:28:41.897Z,33.20
2018-06-23T18:31:10.406Z,32.70
2018-06-23T18:33:38.974Z,31.90
2018-06-23T18:36:07.469Z,31.60
2018-06-23T18:38:36.074Z,31.60
2018-06-23T18:41:04.813Z,31.20
2018-06-23T18:43:33.295Z,32.10
2018-06-23T18:46:01.802Z,32.20
2018-06-23T18:48:30.377Z,32.40
2018-06-23T18:50:58.830Z,32.10
2018-06-23T18:53:27.335Z,31.90
2018-06-23T18:55:55.974Z,31.80
2018-06-23T18:58:24.565Z,32.00
2018-06-23T19:00:53.069Z,31.60
2018-06-23T19:03:21.597Z,30.90
2018-06-23T19:05:50.037Z,30.00
2018-06-23T19:08:18.516Z,28.90
2018-06-23T19:10:46.985Z,27.60
2018-06-23T19:13:16.210Z,26.60
2018-06-23T19:15:44.679Z,25.70
2018-06-23T19:18:13.169Z,24.80
2018-06-23T19:20:41.686Z,24.10
2018-06-23T19:23:10.138Z,23.40
2018-06-23T19:25:38.616Z,22.80
2018-06-23T19:28:07.069Z,22.30
2018-06-23T19:30:35.519Z,22.00
2018-06-23T19:33:03.977Z,21.60
2018-06-23T19:35:32.471Z,21.20
2018-06-23T19:38:00.981Z,20.90
2018-06-23T19:40:29.448Z,20.60
2018-06-23T19:42:57.898Z,20.30
2018-06-23T19:45:26.354Z,20.10
2018-06-23T19:47:54.908Z,19.90
2018-06-23T19:50:23.368Z,19.80
2018-06-23T19:52:51.819Z,19.70
2018-06-23T19:55:20.269Z,19.50
2018-06-23T19:57:49.564Z,19.30
2018-06-23T20:00:18.061Z,19.20
2018-06-23T20:02:46.518Z,19.10
2018-06-23T20:05:14.993Z,19.00
2018-06-23T20:07:43.462Z,18.90
2018-06-23T20:10:11.907Z,18.90
2018-06-23T20:12:40.359Z,18.80
2018-06-23T20:15:08.915Z,18.70
2018-06-23T20:17:37.371Z,18.50
2018-06-23T20:20:06.521Z,18.50
2018-06-23T20:22:34.989Z,18.40
2018-06-23T20:25:03.457Z,18.30
2018-06-23T20:27:31.947Z,18.30
2018-06-23T20:30:00.469Z,18.20
2018-06-23T20:32:28.996Z,18.20
2018-06-23T20:37:25.609Z,18.00
2018-06-23T20:39:54.087Z,18.00
2018-06-23T20:42:22.559Z,17.90
2018-06-23T20:44:51.013Z,17.90
2018-06-23T20:47:19.536Z,17.80
2018-06-23T20:49:47.981Z,17.70
2018-06-23T20:52:17.273Z,17.70
2018-06-23T20:54:45.765Z,17.70
2018-06-23T20:57:14.278Z,17.60
2018-06-23T20:59:42.721Z,17.70
2018-06-23T21:02:11.165Z,17.60
2018-06-23T21:04:39.669Z,17.60
2018-06-23T21:07:08.165Z,17.60
2018-06-23T21:12:04.848Z,17.60
2018-06-23T21:14:33.341Z,17.60
2018-06-23T21:17:01.823Z,17.60
2018-06-23T21:19:30.325Z,17.50
2018-06-23T21:21:59.567Z,17.40
2018-06-23T21:24:28.078Z,17.50
2018-06-23T21:26:56.561Z,17.50
2018-06-23T21:29:25.031Z,17.50
2018-06-23T21:31:53.513Z,17.50
2018-06-23T21:34:21.999Z,17.50
2018-06-23T21:36:50.449Z,17.40
2018-06-23T21:39:19.042Z,17.40
2018-06-23T21:41:47.524Z,17.40
2018-06-23T21:44:15.981Z,17.40
2018-06-23T21:49:13.517Z,17.30
2018-06-23T21:51:42.017Z,17.40
2018-06-23T21:54:10.500Z,17.40
2018-06-23T21:56:38.985Z,17.40
2018-06-23T21:59:07.461Z,17.40
2018-06-23T22:01:36.042Z,17.50
2018-06-23T22:04:04.642Z,17.50
2018-06-23T22:06:33.125Z,17.50
2018-06-23T22:09:01.601Z,17.50
2018-06-23T22:11:30.070Z,17.40
2018-06-23T22:13:59.242Z,17.30
2018-06-23T22:16:27.761Z,17.20
2018-06-23T22:18:57.018Z,17.20
2018-06-23T22:21:25.544Z,17.20
2018-06-23T22:23:53.993Z,17.10
2018-06-23T22:26:23.377Z,17.20
2018-06-23T22:28:51.857Z,17.00
2018-06-23T22:31:20.323Z,16.90
2018-06-23T22:33:48.824Z,16.90
2018-06-23T22:36:17.297Z,16.90
2018-06-23T22:38:45.756Z,16.90
2018-06-23T22:41:15.057Z,17.00
2018-06-23T22:43:43.556Z,16.90
2018-06-23T22:46:12.077Z,16.90
2018-06-23T22:48:40.539Z,16.90
2018-06-23T22:51:09.279Z,16.90
2018-06-23T22:53:37.853Z,16.90
2018-06-23T22:56:06.389Z,16.90
2018-06-23T22:58:34.881Z,16.90
2018-06-23T23:01:03.337Z,16.90
2018-06-23T23:03:31.812Z,16.90
2018-06-23T23:06:00.303Z,16.80
2018-06-23T23:08:28.845Z,16.70
2018-06-23T23:10:57.305Z,16.70
2018-06-23T23:13:25.767Z,16.70
2018-06-23T23:15:54.286Z,16.70
2018-06-23T23:18:22.749Z,16.70
2018-06-23T23:20:51.273Z,16.60
2018-06-23T23:23:19.729Z,16.60
2018-06-23T23:25:48.203Z,16.60
2018-06-23T23:28:17.011Z,16.50
2018-06-23T23:33:14.429Z,16.50
2018-06-23T23:35:42.910Z,16.50
2018-06-23T23:38:11.394Z,16.50
2018-06-23T23:40:39.903Z,16.50
2018-06-23T23:43:08.477Z,16.50
2018-06-23T23:45:36.957Z,16.50
2018-06-23T23:48:05.494Z,16.50
2018-06-23T23:50:33.976Z,16.40
2018-06-23T23:53:04.804Z,16.30
2018-06-23T23:55:33.273Z,16.30
2018-06-23T23:58:01.817Z,16.30
